Estación de Galvarino

Ultimos registro cada 15 minutos 57
Estación Fecha / Hora Temperatura Humedad Lluvia Velocidad Dirección Radiación Presion
57 Galvarino 04-05-2026 14:00 11,9 94,7 0 1 161 40,6 990,8
56 Galvarino 04-05-2026 13:45 12 94,3 0 2 163 68,1 990,8
55 Galvarino 04-05-2026 13:30 11,9 93,9 0 2,5 168 104,4 990,6
54 Galvarino 04-05-2026 13:15 11,8 94,5 0 2 167 103,1 990,7
53 Galvarino 04-05-2026 13:00 11,7 95,7 0 2 164 113,1 991,2
52 Galvarino 04-05-2026 12:45 11,5 96,2 0 2 164 84,4 991,2
51 Galvarino 04-05-2026 12:30 11,3 96,8 0 1 166 68,1 991,2
50 Galvarino 04-05-2026 12:15 11,1 97,3 0 1 168 73,1 991,2
49 Galvarino 04-05-2026 12:00 11 97,8 0 1,5 167 69,4 991,4
48 Galvarino 04-05-2026 11:45 10,8 98,6 0 2 168 90,6 991,4
47 Galvarino 04-05-2026 11:30 10,6 99,3 0 1,5 166 56,9 991,4
46 Galvarino 04-05-2026 11:15 10,5 99,5 0 1 163 60,6 991,2
45 Galvarino 04-05-2026 11:00 10,3 99,6 0 0,5 163 31,9 991,6
44 Galvarino 04-05-2026 10:45 10,2 99,6 0 0 171 26,9 991,2
43 Galvarino 04-05-2026 10:30 10,1 99,7 0 0,5 171 30,6 991,3
42 Galvarino 04-05-2026 10:15 10 99,7 0 1 166 23,1 991,4
41 Galvarino 04-05-2026 10:00 9,9 99,8 0 0,5 171 20,6 991,4
40 Galvarino 04-05-2026 09:45 9,8 99,8 0 1 170 19,4 991,4
39 Galvarino 04-05-2026 09:30 9,8 99,8 0 1,5 168 20,6 991,5
38 Galvarino 04-05-2026 09:15 9,8 99,9 0 1 170 20,6 991,2
37 Galvarino 04-05-2026 09:00 9,6 99,9 0 1 167 19,4 991,4
36 Galvarino 04-05-2026 08:45 9,5 99,9 0 0,5 170 15,6 991,3
35 Galvarino 04-05-2026 08:30 9,3 99,9 0 0 171 6,9 990,9
34 Galvarino 04-05-2026 08:15 9,2 99,8 0 0,5 177 3,1 990,5
33 Galvarino 04-05-2026 08:00 9,2 99,8 0 0,5 174 0,6 990,5
32 Galvarino 04-05-2026 07:45 9,1 99,8 0 0 175 3,1 990,3
31 Galvarino 04-05-2026 07:30 9,1 99,7 0 0 174 0,6 990,4
30 Galvarino 04-05-2026 07:15 9,1 99,7 0 0 173 0,6 990,4
29 Galvarino 04-05-2026 07:00 9,1 99,7 0 0,5 173 0,6 990,4
28 Galvarino 04-05-2026 06:45 9,1 99,7 0 0 175 0,6 990,5
27 Galvarino 04-05-2026 06:30 9,2 99,6 0 0,5 174 0,6 990,5
26 Galvarino 04-05-2026 06:15 9,1 99,6 0 0,5 173 0,6 990,3
25 Galvarino 04-05-2026 06:00 9,1 99,4 0 0,5 170 0,6 990,3
24 Galvarino 04-05-2026 05:45 9,1 99,4 0 1,5 171 0,6 990,4
23 Galvarino 04-05-2026 05:30 9,1 99,2 0 1 168 0,6 990,6
22 Galvarino 04-05-2026 05:15 9,2 99,2 0 1,5 168 0,6 990,6
21 Galvarino 04-05-2026 05:00 9,2 99,2 0 1,5 170 0,6 990,4
20 Galvarino 04-05-2026 04:45 9,1 99,1 0 0,5 168 0,6 990,4
19 Galvarino 04-05-2026 04:30 9,1 99 0 0,5 167 0,6 990,4
18 Galvarino 04-05-2026 04:15 9,2 98,9 0 0 160 0,6 990,5
17 Galvarino 04-05-2026 04:00 9,1 98,8 0 0 150 0,6 990,5
16 Galvarino 04-05-2026 03:45 9,1 98,7 0 0 138 0,6 990,3
15 Galvarino 04-05-2026 03:30 9,1 98,7 0 0 149 0,6 990,6
14 Galvarino 04-05-2026 03:15 8,9 98,6 0 0 129 0,6 990,9
13 Galvarino 04-05-2026 03:00 9 98,5 0 0 143 0,6 990,9
12 Galvarino 04-05-2026 02:45 9 98,6 0 0 146 0,6 991,2
11 Galvarino 04-05-2026 02:30 9 98,5 0 0,5 139 0,6 991,3
10 Galvarino 04-05-2026 02:15 9 98,3 0 0,5 160 0,6 991,4
9 Galvarino 04-05-2026 02:00 9 98,3 0 0 161 0,6 991,4
8 Galvarino 04-05-2026 01:45 9 98,2 0 0 168 0,6 991,4
7 Galvarino 04-05-2026 01:30 8,9 98,1 0 0 156 0,6 991,5
6 Galvarino 04-05-2026 01:15 8,9 98 0 0 160 0,6 991,7
5 Galvarino 04-05-2026 01:00 8,9 98,1 0 0 156 0,6 991,9
4 Galvarino 04-05-2026 00:45 8,9 98,1 0 0 145 0,6 992,4
3 Galvarino 04-05-2026 00:30 8,9 98,2 0 0 147 0,6 992,5
2 Galvarino 04-05-2026 00:15 8,8 98,2 0 0 161 0,6 992,4
1 Galvarino 04-05-2026 00:00 8,8 98,1 0 0 156 0,6 992,5